WEATHER DATA

YESTERDAY
Time Temp. Dewp. Hum. Wind dir Wind speed Wind gust Bar. 1h Prec. 24h Prec.
00:17 11.1 10.2 94 11 0.6 2.8 1014.1 0.0000 0.0000
00:27 11.2 10.3 94 90 0.3 1.1 1014.1 0.0000 0.0000
00:37 11.3 10.2 93 90 0.6 1.4 1014.2 0.0000 0.0000
00:48 11.4 10.3 93 71 0.6 1.4 1014.3 0.0000 0.0000
00:58 11.5 10.4 93 63 0.8 1.7 1014.4 0.0000 0.0000
01:08 11.8 10.5 92 90 0.8 2.5 1014.4 0.0000 0.0000
01:18 11.9 10.6 92 72 0.6 1.4 1014.4 0.0000 0.0000
01:28 12 10.7 92 45 0.6 1.1 1014.6 0.0000 0.0000
01:38 12 10.6 91 90 0.6 1.1 1014.6 0.0000 0.0000
01:48 11.8 10.4 91 90 0.3 0.8 1014.9 0.0000 0.0000
01:59 11.5 10.1 91 90 0.6 0.8 1014.9 0.0000 0.0000
02:09 11.4 10.1 92 90 0.3 0.8 1014.8 0.0000 0.0000
02:18 11.3 10 92 90 0.3 0.8 1015 0.0000 0.0000
02:28 11.1 9.9 92 70 0.6 1.1 1014.9 0.0000 0.0000
02:39 11.1 10 93 53 0.6 1.4 1015 0.0000 0.0000
02:49 11.1 10 93 52 0.6 1.9 1015.2 0.0000 0.0000
02:59 11.2 10.1 93 59 0.6 1.1 1015.2 0.0000 0.0000
03:09 11.2 10.1 93 90 0.6 1.1 1015.3 0.0000 0.0000
03:19 11.1 9.9 92 61 0.6 1.1 1015.4 0.0000 0.0000
03:29 11 9.8 92 60 0.6 1.7 1015.4 0.0000 0.0000
03:39 11 9.8 92 69 0.6 1.1 1015.6 0.0000 0.0000
03:50 10.9 9.7 92 353 0.8 3.9 1015.8 0.0000 0.0000
03:59 10.9 9.7 92 59 0.6 1.9 1015.9 0.0000 0.0000
04:09 10.9 9.7 92 6 0.6 1.7 1016.1 0.0000 0.0000
04:20 10.9 9.7 92 45 0.6 1.4 1016.3 0.0000 0.0000
04:30 10.8 9.6 92 71 0.6 1.4 1016.4 0.0000 0.0000
04:40 10.7 9.5 92 90 0.6 0.8 1016.6 0.0000 0.0000
04:50 10.6 9.4 92 90 0.3 1.1 1016.7 0.0000 0.0000
05:00 10.4 9.2 92 90 0.6 1.1 1016.8 0.0000 0.0000
05:10 10.3 9.1 92 90 0.6 1.1 1017 0.0000 0.0000
05:20 10.1 8.9 92 90 0.3 0.6 1017.1 0.0000 0.0000
05:30 9.9 8.7 92 90 0.3 1.1 1017.3 0.0000 0.0000
05:41 9.6 8.4 92 90 0.3 0.8 1017.4 0.0000 0.0000
05:50 9.4 8.2 92 90 0.3 0.8 1017.5 0.0000 0.0000
06:00 9.2 8 92 90 0.3 0.8 1017.6 0.0000 0.0000
06:11 9 7.9 93 71 0.6 1.7 1017.7 0.0000 0.0000
06:21 8.9 7.8 93 90 0.3 0.8 1017.8 0.0000 0.0000
06:31 8.9 8 94 90 0.6 1.1 1017.7 0.0000 0.0000
06:41 8.9 8 94 90 0.3 0.8 1017.7 0.0000 0.0000
06:51 8.9 8 94 68 0.6 1.4 1018 0.0000 0.0000
07:01 9 8.2 95 30 0.6 2.8 1018 0.0000 0.0000
07:11 9.2 8.4 95 312 0.8 3.1 1017.8 0.0000 0.0000
07:22 9.4 8.6 95 323 0.8 2.8 1017.8 0.0000 0.0000
07:32 9.7 8.9 95 349 0.6 2.8 1017.9 0.0000 0.0000
07:41 10.1 9.3 95 332 0.8 3.3 1018 0.0000 0.0000
07:51 10.5 9.6 94 355 0.6 3.3 1017.9 0.0000 0.0000
08:02 11 9.9 93 345 0.8 3.3 1017.9 0.0000 0.0000
08:12 11.4 10.1 92 329 1.1 3.6 1017.9 0.0000 0.0000
08:22 11.8 10.2 90 322 1.1 3.3 1018 0.0000 0.0000
08:32 12.1 10.2 88 317 1.1 4.4 1017.9 0.0000 0.0000
08:41 12.6 10.7 88 315 1.1 3.6 1017.9 0.0000 0.0000
08:52 13.1 10.6 85 323 1.1 3.9 1017.9 0.0000 0.0000
09:02 13.5 10.5 82 338 1.1 3.3 1017.9 0.0000 0.0000
09:13 13.9 10.7 81 334 1.1 3.3 1018 0.0000 0.0000
09:23 14.4 11 80 344 1.1 4.2 1018.1 0.0000 0.0000
09:32 14.9 11.1 78 326 1.4 4.2 1018.3 0.0000 0.0000
09:43 15.2 11.2 77 331 0.8 4.2 1018.5 0.0000 0.0000
09:53 15.5 11.3 76 319 1.4 3.3 1018.7 0.0000 0.0000
10:03 15.8 11.2 74 328 1.4 5.3 1018.7 0.0000 0.0000
10:13 16.1 11.3 73 328 1.4 5.6 1018.7 0.0000 0.0000
10:23 16.5 11.9 74 315 1.1 5.3 1018.8 0.0000 0.0000
10:33 16.8 11.3 70 324 1.1 2.8 1018.8 0.0000 0.0000
10:43 17.1 12 72 322 1.1 3.9 1018.8 0.0000 0.0000
10:57 17.6 12.3 71 306 1.1 6.1 1019 0.0000 0.0000
11:07 17.8 12 69 329 0.8 2.5 1018.8 0.0000 0.0000
11:17 18.1 12.5 70 351 0.6 1.7 1018.7 0.0000 0.0000
11:28 18.3 12.7 70 356 0.6 2.8 1018.7 0.0000 0.0000
11:37 18.4 12.6 69 325 0.8 2.8 1018.5 0.0000 0.0000
11:47 18.5 12.3 67 330 0.8 3.3 1018.5 0.0000 0.0000
11:58 18.3 11.8 66 333 0.8 1.9 1018.4 0.0000 0.0000
12:08 18.1 12.1 68 315 0.8 2.5 1018.6 0.0000 0.0000
12:18 17.9 11.9 68 50 0.6 1.7 1018.4 0.0000 0.0000
12:28 17.8 12 69 315 0.6 1.9 1018.4 0.0000 0.0000
12:38 17.7 11.9 69 45 0.6 1.4 1018.5 0.0000 0.0000
12:48 17.6 11.6 68 322 0.8 3.1 1018.2 0.0000 0.0000
12:58 17.4 11.7 69 3 0.8 3.3 1018.5 0.0000 0.0000
13:08 17.2 11 67 319 1.1 2.8 1018.6 0.0000 0.0000
13:19 17.1 11.4 69 45 0.6 1.7 1018.4 0.0000 0.0000
13:28 17 11.3 69 341 0.6 3.1 1018.4 0.0000 0.0000
13:38 16.9 11.6 71 45 0.6 1.9 1018.2 0.0000 0.0000
13:49 17 11.5 70 39 0.3 0.8 1018.1 0.0000 0.0000
13:59 17.2 11.5 69 340 0.8 1.9 1018.1 0.0000 0.0000
14:09 17.2 11.7 70 351 0.6 1.7 1018.1 0.0000 0.0000
14:19 17.2 11.5 69 48 0.6 1.4 1017.9 0.0000 0.0000
14:29 17.2 11.7 70 355 0.6 1.7 1017.8 0.0000 0.0000
14:39 17.3 11.6 69 29 0.6 2.5 1017.6 0.0000 0.0000
14:49 17.3 11.8 70 319 0.8 3.1 1017.5 0.0000 0.0000
15:00 17.2 11.5 69 41 0.6 1.1 1017.4 0.0000 0.0000
15:10 17.2 11.9 71 59 0.6 1.1 1017.4 0.0000 0.0000
15:19 17.2 11.9 71 55 0.6 1.4 1017.3 0.0000 0.0000
15:29 17.1 11.8 71 45 0.3 0.8 1017.2 0.0000 0.0000
15:40 17.1 11.8 71 45 0.6 1.9 1017 0.0000 0.0000
15:50 17.1 12 72 75 0.6 1.1 1016.9 0.0000 0.0000
16:00 17 11.9 72 315 0.3 1.4 1016.9 0.0000 0.0000
16:10 16.9 12 73 39 0.6 2.5 1016.9 0.0000 0.0000
16:20 16.7 12.3 75 45 0.6 1.7 1016.8 0.0000 0.0000
16:30 16.4 12.2 76 0 0.6 1.7 1016.7 0.0000 0.0000
16:40 16.1 12.3 78 296 0.8 3.1 1016.6 0.0000 0.0000
16:51 15.8 12.4 80 39 0.6 1.7 1016.4 0.0000 0.0000
17:01 15.6 12.4 81 9 0.6 1.9 1016.4 0.0000 0.0000
17:10 15.4 12.3 82 306 0.8 3.6 1016.5 0.0000 0.0000
17:21 15.3 12.4 83 28 0.6 1.9 1016.4 0.0000 0.0000
17:31 15.1 12.2 83 9 0.6 1.4 1016.3 0.0000 0.0000
17:41 15 12.1 83 34 0.6 1.7 1016.2 0.0000 0.0000
17:51 14.9 12 83 63 0.6 1.9 1016.3 0.0000 0.0000
18:01 14.7 11.8 83 21 0.6 2.5 1016.3 0.0000 0.0000
18:11 14.5 11.8 84 18 0.6 1.9 1016.2 0.0000 0.0000
18:21 14.3 11.6 84 330 0.8 2.5 1016.1 0.0000 0.0000
18:31 14.2 11.5 84 351 0.6 1.7 1016.2 0.0000 0.0000
18:42 14 11.5 85 8 0.6 3.6 1016.1 0.0000 0.0000
18:52 13.9 11.4 85 343 0.8 1.9 1016.2 0.0000 0.0000
19:01 13.8 11.5 86 301 0.8 3.3 1016.4 0.0000 0.0000
19:12 13.7 11.4 86 324 0.6 1.7 1016.3 0.0000 0.0000
19:22 13.6 11.3 86 45 0.6 1.1 1016.3 0.0000 0.0000
19:32 13.5 11.2 86 45 0.3 1.1 1016.2 0.0000 0.0000
19:42 13.3 11.2 87 8 0.6 1.7 1016.4 0.0000 0.0000
19:52 13.2 11.1 87 68 0.6 1.1 1016.5 0.0000 0.0000
20:02 13.1 11 87 90 0.3 0.8 1016.6 0.0000 0.0000
20:12 13 10.9 87 73 0.6 1.7 1016.8 0.0000 0.0000
20:23 12.8 10.7 87 90 0.3 0.8 1016.6 0.0000 0.0000
20:33 12.7 10.6 87 55 0.3 0.8 1016.7 0.0000 0.0000
20:43 12.6 10.7 88 90 0.3 0.8 1016.7 0.0000 0.0000
20:52 12.4 10.5 88 90 0.3 0.8 1016.7 0.0000 0.0000
21:03 12.3 10.4 88 90 0.3 1.4 1016.7 0.0000 0.0000
21:13 12.2 10.4 89 90 0.3 0.8 1016.7 0.0000 0.0000
21:23 12.2 10.4 89 73 0.6 1.1 1016.8 0.0000 0.0000
21:33 12.2 10.6 90 71 0.6 0.8 1016.9 0.0000 0.0000
21:43 12.3 10.7 90 90 0.3 1.1 1016.8 0.0000 0.0000
21:53 12.3 10.7 90 24 0.6 1.7 1016.7 0.0000 0.0000
22:03 12.3 10.7 90 337 0.8 2.5 1016.7 0.0000 0.0000
22:14 12.4 10.8 90 5 0.6 1.1 1016.8 0.0000 0.0000
22:24 12.3 10.7 90 11 0.6 2.5 1017 0.0000 0.0000
22:33 12.3 10.7 90 348 0.6 1.7 1017.1 0.0000 0.0000
22:44 12.2 10.8 91 12 0.6 1.4 1017.1 0.0000 0.0000
22:54 12.2 10.8 91 9 0.6 1.7 1017.1 0.0000 0.0000
23:04 12.1 10.7 91 68 0.6 0.8 1017.1 0.0000 0.0000
23:14 12.1 10.7 91 32 0.6 1.4 1017.2 0.0000 0.0000
23:25 12.1 10.7 91 45 0.6 1.9 1017.3 0.0000 0.0000
23:34 12 10.6 91 68 0.6 1.1 1017.4 0.0000 0.0000
23:44 11.9 10.5 91 45 0.6 1.9 1017.3 0.0000 0.0000
23:54 11.9 10.5 91 30 0.6 1.4 1017.3 0.0000 0.0000

DAY STATISTIC

2022-10-02
TEMPERATURE
AVERAGE
13.5
HIGH
18.5
11:47
LOW
8.9
06:21
PRESSURE
AVERAGE
1017.0
HIGH
1019.0
10:57
LOW
1014.1
00:17
DEWPOINT
AVERAGE
10.7
HIGH
12.7
11:28
LOW
7.8
06:21
HUMIDITY
AVERAGE
84
HIGH
95
07:01
LOW
66
11:58
WIND SPEED
AVERAGE
0.7
HIGH
1.4
09:32
WIND GUST
AVERAGE
2.0
HIGH
6.1
10:57
WIND DIRECTION
PREVAILING
E
29.8%
N
20.6
NE
25.5
E
29.8
SE
0.0
S
0.0
SW
0.0
W
0.0
NW
24.1
PRECIPITATION
RAIN HOUR
0.0
RAIN DAY
0.0
TEMPERATURE (°C)
LOW
8.9
HIGH
18.5
AVERAGE
13.5
PRESSURE (hpa)
LOW
1014.1
HIGH
1019.0
AVERAGE
1017.0
DEVICE